Nashua, Minnesota
Current Conditions -  °F | °C
As of 1:56 PM on Thursday 30 Oct 2014 (Local Time) from KY63 Reporting Station
Overcast Overcast  
Wind Chill: 32°   Ceiling: 2000
Heat Index: 40°   Visibility: 10mi
Dew Point: 33°   Wind: 16mph
Humidity: 75%   Direction: 350°N
Pressure: 30.21"   Gusts: 24mph
Location:  46.04°N, 96.31°W
Report Text: KY63 301856Z AUTO 35014G21KT 10SM OVC020 05/01 A3021 RMK AO2 T00470006
Loading
Personal Weather Stations






























Interactive Weather Map
Tropical Storm Tracking
New forecast layout! Learn more

10-Day Weather Forecast

Advertisements
Track Severe Weather on mobile